Time;durP1;ratioP1;P1;durP2;ratioP2;P2;SDS_P1;SDS_P2;PMS_P1;PMS_P2;Temp;Humidity;BMP_temperature;BMP_pressure;BME280_temperature;BME280_humidity;BME280_pressure;Samples;Min_cycle;Max_cycle;Signal;HPM_P1;HPM_P2
2021/04/20 00:02:12;;;;;;;37.97;25.55;;;;;;;;;;4998120;28;20286;-70
2021/04/20 00:04:38;;;;;;;37.58;25.40;;;;;;;;;;4988765;28;20278;-70
2021/04/20 00:07:03;;;;;;;36.58;25.02;;;;;;;;;;4998214;28;20656;-70
2021/04/20 00:09:29;;;;;;;40.15;26.27;;;;;;;;;;4989792;28;21497;-70
2021/04/20 00:11:54;;;;;;;38.88;26.15;;;;;;;;;;4997497;28;20294;-70
2021/04/20 00:14:19;;;;;;;40.00;25.98;;;;;;;;;;4983232;28;20214;-70
2021/04/20 00:16:45;;;;;;;37.65;26.00;;;;;;;;;;4996433;28;20256;-70
2021/04/20 00:19:11;;;;;;;39.15;26.83;;;;;;;;;;4989056;28;20246;-70
2021/04/20 00:21:36;;;;;;;34.65;24.63;;;;;;;;;;4998590;28;20278;-70
2021/04/20 00:24:03;;;;;;;37.50;25.13;;;;;;;;;;4991425;28;20194;-70
2021/04/20 00:26:28;;;;;;;37.10;25.65;;;;;;;;;;4986611;28;20179;-70
2021/04/20 00:28:53;;;;;;;42.63;27.95;;;;;;;;;;4995991;28;20209;-70
2021/04/20 00:31:19;;;;;;;40.05;26.77;;;;;;;;;;4984585;28;20195;-70
2021/04/20 00:33:45;;;;;;;40.33;27.23;;;;;;;;;;4998299;28;20219;-70
2021/04/20 00:36:10;;;;;;;37.10;26.05;;;;;;;;;;4989130;28;20289;-71
2021/04/20 00:38:37;;;;;;;40.17;27.38;;;;;;;;;;4997836;28;20647;-70
2021/04/20 00:41:07;;;;;;;42.28;28.45;;;;;;;;;;4994718;28;21070;-70
2021/04/20 00:43:52;;;;;;;43.78;28.52;;;;;;;;;;4995999;28;20190;-70
2021/04/20 00:46:20;;;;;;;41.50;28.27;;;;;;;;;;4989108;28;20203;-70
2021/04/20 00:48:46;;;;;;;42.30;28.42;;;;;;;;;;4996185;28;20674;-70
2021/04/20 00:51:12;;;;;;;45.90;28.27;;;;;;;;;;4989279;28;20252;-71
2021/04/20 00:53:39;;;;;;;40.15;28.10;;;;;;;;;;4993707;28;20226;-70
2021/04/20 00:56:05;;;;;;;41.00;28.23;;;;;;;;;;4991649;28;20194;-70
2021/04/20 00:58:30;;;;;;;42.58;28.85;;;;;;;;;;4988061;28;20204;-70
2021/04/20 01:00:57;;;;;;;42.08;27.75;;;;;;;;;;5007170;28;20236;-70
2021/04/20 01:03:23;;;;;;;41.75;28.02;;;;;;;;;;4985847;28;20207;-70
2021/04/20 01:05:49;;;;;;;37.78;26.27;;;;;;;;;;5000118;28;20183;-70
2021/04/20 01:08:16;;;;;;;42.25;27.48;;;;;;;;;;4986752;28;20282;-70
2021/04/20 01:11:00;;;;;;;39.45;26.60;;;;;;;;;;4997727;28;20176;-70
2021/04/20 01:13:32;;;;;;;40.83;27.05;;;;;;;;;;4983218;28;20219;-70
2021/04/20 01:15:57;;;;;;;40.17;26.83;;;;;;;;;;4992689;28;20234;-70
2021/04/20 01:18:32;;;;;;;42.75;29.10;;;;;;;;;;4983999;28;20227;-70
2021/04/20 01:20:59;;;;;;;40.00;27.20;;;;;;;;;;4992108;28;20194;-71
2021/04/20 01:23:53;;;;;;;41.95;28.35;;;;;;;;;;4987090;28;20574;-70
2021/04/20 01:26:19;;;;;;;42.95;28.55;;;;;;;;;;4999039;28;20543;-70
2021/04/20 01:28:45;;;;;;;45.03;29.52;;;;;;;;;;4986043;28;20574;-70
2021/04/20 01:31:13;;;;;;;45.78;29.67;;;;;;;;;;4996600;28;20210;-70
2021/04/20 01:33:40;;;;;;;44.55;29.27;;;;;;;;;;4985429;28;20221;-70
2021/04/20 01:36:05;;;;;;;43.55;28.58;;;;;;;;;;4997701;28;20199;-69
2021/04/20 01:38:31;;;;;;;43.88;29.38;;;;;;;;;;4984855;28;21148;-69
2021/04/20 01:40:58;;;;;;;50.55;30.70;;;;;;;;;;4993433;28;20654;-70
2021/04/20 01:43:23;;;;;;;42.40;28.92;;;;;;;;;;4992425;28;20203;-69
2021/04/20 01:45:49;;;;;;;42.10;28.77;;;;;;;;;;4982922;28;20187;-69
2021/04/20 01:48:15;;;;;;;44.38;29.85;;;;;;;;;;4994083;28;20278;-69
2021/04/20 01:50:42;;;;;;;42.05;28.92;;;;;;;;;;4993004;28;20305;-70
2021/04/20 01:53:08;;;;;;;45.55;29.52;;;;;;;;;;4991722;28;20222;-69
2021/04/20 01:55:34;;;;;;;48.33;29.40;;;;;;;;;;4991022;28;20198;-69
2021/04/20 01:58:00;;;;;;;49.88;30.38;;;;;;;;;;4992059;28;20201;-69
2021/04/20 02:00:26;;;;;;;46.22;28.45;;;;;;;;;;4981068;28;20234;-70
2021/04/20 02:02:51;;;;;;;46.33;30.33;;;;;;;;;;4992589;28;20718;-70
2021/04/20 02:05:19;;;;;;;47.17;29.85;;;;;;;;;;4979502;28;20191;-70
2021/04/20 02:07:44;;;;;;;48.38;29.55;;;;;;;;;;4996384;28;20281;-70
2021/04/20 02:10:13;;;;;;;47.92;30.98;;;;;;;;;;4980836;28;20740;-70
2021/04/20 02:12:39;;;;;;;54.78;31.75;;;;;;;;;;4993375;28;20186;-70
2021/04/20 02:15:08;;;;;;;51.27;30.97;;;;;;;;;;4989603;28;20191;-70
2021/04/20 02:17:34;;;;;;;49.80;31.13;;;;;;;;;;4994003;28;20190;-70
2021/04/20 02:20:04;;;;;;;50.77;30.60;;;;;;;;;;5002997;28;20186;-70
2021/04/20 02:22:30;;;;;;;53.63;32.20;;;;;;;;;;5001794;28;20619;-70
2021/04/20 02:24:56;;;;;;;47.80;30.60;;;;;;;;;;5000568;28;20318;-70
2021/04/20 02:27:21;;;;;;;50.07;32.10;;;;;;;;;;4983082;28;20571;-70
2021/04/20 02:29:47;;;;;;;49.67;30.97;;;;;;;;;;4991330;28;20226;-70
2021/04/20 02:32:12;;;;;;;54.83;31.87;;;;;;;;;;4981654;28;20313;-69
2021/04/20 02:34:38;;;;;;;49.17;31.07;;;;;;;;;;4991343;28;20200;-69
2021/04/20 02:37:03;;;;;;;46.40;30.33;;;;;;;;;;4985678;28;20210;-70
2021/04/20 02:39:29;;;;;;;47.27;29.87;;;;;;;;;;4993201;28;20194;-69
2021/04/20 02:41:54;;;;;;;46.07;29.23;;;;;;;;;;4986435;28;20691;-70
2021/04/20 02:44:20;;;;;;;48.80;30.53;;;;;;;;;;4990766;28;20227;-70
2021/04/20 02:46:46;;;;;;;45.40;30.03;;;;;;;;;;4985377;28;20635;-70
2021/04/20 02:49:12;;;;;;;49.00;30.25;;;;;;;;;;4994005;28;20201;-70
2021/04/20 02:51:39;;;;;;;48.57;30.73;;;;;;;;;;4990975;28;20187;-70
2021/04/20 02:54:06;;;;;;;47.37;30.73;;;;;;;;;;4987546;28;20298;-69
2021/04/20 02:56:32;;;;;;;49.10;30.40;;;;;;;;;;4996460;28;20205;-70
2021/04/20 02:59:00;;;;;;;46.07;30.07;;;;;;;;;;4990345;28;20182;-69
2021/04/20 03:01:29;;;;;;;46.07;29.63;;;;;;;;;;4991633;28;20266;-69
2021/04/20 03:03:55;;;;;;;49.17;30.67;;;;;;;;;;4985094;28;20202;-69
2021/04/20 03:06:20;;;;;;;50.40;30.90;;;;;;;;;;4993970;28;20197;-70
2021/04/20 03:08:46;;;;;;;48.23;29.43;;;;;;;;;;4984217;28;20583;-69
2021/04/20 03:11:21;;;;;;;48.77;30.53;;;;;;;;;;4994438;28;20561;-70
2021/04/20 03:13:47;;;;;;;47.20;31.27;;;;;;;;;;4987213;28;20198;-70
2021/04/20 03:16:15;;;;;;;48.13;31.17;;;;;;;;;;4989552;28;20673;-70
2021/04/20 03:18:41;;;;;;;48.40;30.50;;;;;;;;;;4987415;28;20194;-70
2021/04/20 03:21:11;;;;;;;45.73;31.00;;;;;;;;;;4996449;28;20179;-70
2021/04/20 03:23:37;;;;;;;48.20;30.73;;;;;;;;;;4985808;28;20651;-70
2021/04/20 03:26:06;;;;;;;48.37;30.80;;;;;;;;;;4995707;28;20189;-70
2021/04/20 03:28:31;;;;;;;49.00;31.53;;;;;;;;;;4992990;28;20180;-69
2021/04/20 03:31:00;;;;;;;48.80;30.87;;;;;;;;;;4983264;28;20184;-69
2021/04/20 03:33:37;;;;;;;53.23;32.07;;;;;;;;;;4991096;28;20182;-70
2021/04/20 03:36:13;;;;;;;51.17;31.53;;;;;;;;;;4982998;28;20197;-70
2021/04/20 03:38:46;;;;;;;49.63;31.40;;;;;;;;;;4992249;28;20179;-70
2021/04/20 03:41:21;;;;;;;50.70;31.03;;;;;;;;;;4979889;28;20316;-70
2021/04/20 03:43:48;;;;;;;51.63;30.67;;;;;;;;;;4995585;28;20254;-70
2021/04/20 03:46:18;;;;;;;52.27;31.30;;;;;;;;;;4980873;28;20195;-69
2021/04/20 03:48:48;;;;;;;56.47;32.87;;;;;;;;;;4991426;28;20183;-69
2021/04/20 03:51:15;;;;;;;54.07;33.07;;;;;;;;;;4982659;28;20183;-70
2021/04/20 03:53:50;;;;;;;52.23;32.53;;;;;;;;;;4992567;28;20604;-70
2021/04/20 03:56:18;;;;;;;58.10;33.87;;;;;;;;;;4982936;28;20195;-70
2021/04/20 03:58:45;;;;;;;57.37;32.43;;;;;;;;;;4997265;28;20180;-70
2021/04/20 04:01:13;;;;;;;57.17;34.13;;;;;;;;;;4988042;28;20215;-70
2021/04/20 04:03:40;;;;;;;53.60;32.20;;;;;;;;;;4991910;28;20202;-70
2021/04/20 04:06:07;;;;;;;55.53;33.37;;;;;;;;;;4982090;28;20651;-70
2021/04/20 04:08:36;;;;;;;54.07;32.63;;;;;;;;;;4996498;28;20515;-69
2021/04/20 04:11:03;;;;;;;53.37;31.73;;;;;;;;;;4987857;28;20812;-69
2021/04/20 04:13:30;;;;;;;60.37;34.93;;;;;;;;;;4992170;28;20211;-69
2021/04/20 04:16:00;;;;;;;50.97;31.20;;;;;;;;;;4994283;28;20201;-69
2021/04/20 04:18:27;;;;;;;57.13;32.97;;;;;;;;;;4985791;28;20583;-69
2021/04/20 04:20:53;;;;;;;53.53;33.13;;;;;;;;;;4997520;28;20187;-69
2021/04/20 04:23:24;;;;;;;54.53;33.30;;;;;;;;;;4987378;28;20266;-69
2021/04/20 04:25:57;;;;;;;57.57;34.40;;;;;;;;;;4993475;28;20188;-70
2021/04/20 04:28:24;;;;;;;59.57;36.30;;;;;;;;;;4987798;28;20191;-69
2021/04/20 04:30:51;;;;;;;55.63;33.30;;;;;;;;;;4993163;28;20640;-70
2021/04/20 04:33:17;;;;;;;53.37;32.30;;;;;;;;;;4986342;28;20219;-70
2021/04/20 04:35:45;;;;;;;61.83;34.33;;;;;;;;;;4990574;28;20209;-70
2021/04/20 04:38:10;;;;;;;59.20;33.53;;;;;;;;;;4987444;28;20216;-69
2021/04/20 04:40:37;;;;;;;54.57;31.97;;;;;;;;;;4992689;28;20306;-69
2021/04/20 04:43:02;;;;;;;53.30;30.30;;;;;;;;;;4986922;28;20187;-69
2021/04/20 04:45:28;;;;;;;57.00;32.70;;;;;;;;;;4999309;28;20249;-69
2021/04/20 04:47:54;;;;;;;58.53;33.90;;;;;;;;;;4988005;28;20222;-69
2021/04/20 04:50:20;;;;;;;54.50;33.03;;;;;;;;;;4996649;28;20205;-70
2021/04/20 04:52:47;;;;;;;54.83;32.63;;;;;;;;;;4985480;28;20178;-71
2021/04/20 04:55:15;;;;;;;54.43;32.47;;;;;;;;;;4997543;28;20191;-70
2021/04/20 04:57:42;;;;;;;56.73;31.83;;;;;;;;;;4991839;28;20266;-71
2021/04/20 05:00:08;;;;;;;53.53;32.20;;;;;;;;;;4982505;28;20191;-69
2021/04/20 05:02:35;;;;;;;51.17;30.77;;;;;;;;;;5006571;28;20203;-69
2021/04/20 05:05:10;;;;;;;55.17;30.60;;;;;;;;;;4986665;28;20203;-71
2021/04/20 05:07:35;;;;;;;53.80;30.83;;;;;;;;;;4990787;28;20201;-70
2021/04/20 05:10:07;;;;;;;63.70;35.60;;;;;;;;;;4986995;28;20195;-70
2021/04/20 05:12:33;;;;;;;63.33;35.77;;;;;;;;;;4995706;28;20357;-69
2021/04/20 05:15:13;;;;;;;57.57;34.77;;;;;;;;;;4983012;28;20186;-70
2021/04/20 05:17:40;;;;;;;54.57;33.37;;;;;;;;;;4995411;28;20171;-70
2021/04/20 05:20:07;;;;;;;56.87;33.67;;;;;;;;;;4985564;28;20176;-70
2021/04/20 05:22:34;;;;;;;60.27;35.27;;;;;;;;;;4995718;28;20662;-70
2021/04/20 05:25:01;;;;;;;59.43;34.27;;;;;;;;;;4984317;28;20198;-70
2021/04/20 05:27:26;;;;;;;57.63;34.77;;;;;;;;;;4990970;28;20239;-71
2021/04/20 05:29:51;;;;;;;55.57;33.70;;;;;;;;;;4984647;28;20998;-70
2021/04/20 05:32:17;;;;;;;58.53;33.23;;;;;;;;;;4991751;28;20188;-70
2021/04/20 05:34:42;;;;;;;53.07;32.13;;;;;;;;;;5001898;28;20214;-69
2021/04/20 05:37:07;;;;;;;54.23;33.17;;;;;;;;;;4984974;28;20558;-69
2021/04/20 05:39:33;;;;;;;55.73;32.60;;;;;;;;;;4992016;28;20209;-69
2021/04/20 05:41:58;;;;;;;57.47;33.50;;;;;;;;;;4983118;28;20564;-69
2021/04/20 05:44:24;;;;;;;59.73;36.13;;;;;;;;;;4998086;28;20293;-70
2021/04/20 05:46:49;;;;;;;59.63;35.60;;;;;;;;;;4983783;28;20183;-70
2021/04/20 05:49:19;;;;;;;59.93;36.10;;;;;;;;;;4995154;28;20195;-69
2021/04/20 05:51:45;;;;;;;60.67;37.90;;;;;;;;;;4984692;28;20943;-69
2021/04/20 05:54:11;;;;;;;61.87;35.63;;;;;;;;;;4994337;28;20282;-69
2021/04/20 05:56:37;;;;;;;60.10;37.03;;;;;;;;;;4980999;28;20667;-69
2021/04/20 05:59:05;;;;;;;63.77;37.67;;;;;;;;;;4994785;28;20198;-69
2021/04/20 06:01:33;;;;;;;63.00;37.33;;;;;;;;;;4980609;28;20214;-70
2021/04/20 06:03:59;;;;;;;62.20;36.13;;;;;;;;;;4996442;28;20526;-69
2021/04/20 06:06:25;;;;;;;65.80;37.87;;;;;;;;;;4981037;28;20191;-70
2021/04/20 06:08:54;;;;;;;57.63;34.77;;;;;;;;;;4990730;28;20190;-70
2021/04/20 06:11:21;;;;;;;58.20;36.07;;;;;;;;;;4991705;28;20221;-69
2021/04/20 06:13:47;;;;;;;66.70;39.77;;;;;;;;;;4986238;28;20206;-69
2021/04/20 06:16:13;;;;;;;61.10;38.07;;;;;;;;;;4992476;28;20237;-69
2021/04/20 06:18:41;;;;;;;64.73;38.07;;;;;;;;;;4985978;28;20236;-70
2021/04/20 06:21:08;;;;;;;60.70;36.80;;;;;;;;;;4993352;28;20196;-70
2021/04/20 06:23:36;;;;;;;59.90;37.63;;;;;;;;;;4990792;28;20195;-70
2021/04/20 06:26:04;;;;;;;62.75;36.55;;;;;;;;;;4990959;28;20198;-69
2021/04/20 06:28:30;;;;;;;60.28;37.20;;;;;;;;;;4988741;28;20219;-70
2021/04/20 06:30:57;;;;;;;60.70;38.13;;;;;;;;;;4994764;28;20327;-70
2021/04/20 06:33:24;;;;;;;61.30;36.00;;;;;;;;;;4982459;28;20678;-69
2021/04/20 06:35:50;;;;;;;60.55;37.60;;;;;;;;;;4996102;28;20261;-69
2021/04/20 06:38:16;;;;;;;57.17;36.30;;;;;;;;;;4983214;28;20187;-69
2021/04/20 06:40:46;;;;;;;52.85;35.40;;;;;;;;;;4992376;28;20202;-69
2021/04/20 06:43:13;;;;;;;56.85;36.35;;;;;;;;;;4983582;28;20215;-69
2021/04/20 06:45:48;;;;;;;57.45;36.70;;;;;;;;;;4990930;28;20569;-69
2021/04/20 06:48:17;;;;;;;58.28;35.58;;;;;;;;;;4989254;28;20229;-69
2021/04/20 06:50:43;;;;;;;53.78;35.10;;;;;;;;;;4981316;28;20199;-70
2021/04/20 06:53:18;;;;;;;56.50;36.53;;;;;;;;;;4993832;28;20309;-70
2021/04/20 06:55:53;;;;;;;57.85;35.97;;;;;;;;;;4985232;28;20201;-70
2021/04/20 06:58:42;;;;;;;49.28;33.78;;;;;;;;;;4995826;28;20178;-70
2021/04/20 07:01:15;;;;;;;53.15;35.30;;;;;;;;;;4982933;28;20191;-70
2021/04/20 07:03:51;;;;;;;50.80;33.20;;;;;;;;;;4991541;28;20214;-71
2021/04/20 07:06:30;;;;;;;51.25;34.78;;;;;;;;;;4983400;28;20616;-69
2021/04/20 07:09:13;;;;;;;51.90;33.22;;;;;;;;;;4990653;28;20658;-69
2021/04/20 07:11:44;;;;;;;52.22;33.67;;;;;;;;;;4982330;28;20559;-69
2021/04/20 07:14:16;;;;;;;54.08;36.00;;;;;;;;;;4997747;28;20210;-70
2021/04/20 07:16:51;;;;;;;58.67;37.28;;;;;;;;;;4982018;28;20226;-70
2021/04/20 07:19:45;;;;;;;56.83;37.20;;;;;;;;;;4997632;28;20185;-69
2021/04/20 07:22:48;;;;;;;52.38;34.95;;;;;;;;;;4979889;28;20749;-70
2021/04/20 07:25:43;;;;;;;50.95;34.35;;;;;;;;;;4985137;28;20181;-70
2021/04/20 07:28:11;;;;;;;57.25;36.67;;;;;;;;;;4987364;28;20225;-70
2021/04/20 07:30:48;;;;;;;56.33;36.10;;;;;;;;;;4986727;28;20183;-70
2021/04/20 07:33:27;;;;;;;54.30;34.88;;;;;;;;;;4994516;28;20730;-70
2021/04/20 07:36:21;;;;;;;53.00;33.47;;;;;;;;;;4985471;28;20677;-70
2021/04/20 07:39:09;;;;;;;52.55;33.65;;;;;;;;;;4991097;28;20206;-70
2021/04/20 07:41:48;;;;;;;49.50;32.75;;;;;;;;;;4983745;28;21715;-70
2021/04/20 07:44:40;;;;;;;49.90;30.08;;;;;;;;;;4992220;28;20243;-70
2021/04/20 07:47:13;;;;;;;49.58;29.83;;;;;;;;;;4981123;28;20249;-69
2021/04/20 07:50:13;;;;;;;50.20;31.10;;;;;;;;;;4990663;28;20198;-70
2021/04/20 07:53:19;;;;;;;44.90;29.48;;;;;;;;;;4981604;28;20269;-70
2021/04/20 07:55:51;;;;;;;48.38;30.52;;;;;;;;;;4943945;28;20566;-70
2021/04/20 07:58:20;;;;;;;47.10;30.50;;;;;;;;;;4978789;28;20194;-69
2021/04/20 08:00:58;;;;;;;45.72;29.33;;;;;;;;;;4998827;28;20657;-69
2021/04/20 08:03:33;;;;;;;44.47;28.92;;;;;;;;;;4986753;28;20357;-69
2021/04/20 08:06:08;;;;;;;48.83;28.10;;;;;;;;;;4995354;28;20747;-69
2021/04/20 08:08:44;;;;;;;47.15;29.40;;;;;;;;;;4986858;28;20722;-70
2021/04/20 08:11:34;;;;;;;47.95;30.58;;;;;;;;;;4992059;28;20228;-69
2021/04/20 08:14:06;;;;;;;43.28;29.35;;;;;;;;;;4983719;28;20493;-70
2021/04/20 08:16:38;;;;;;;44.10;28.90;;;;;;;;;;4994662;28;20217;-70
2021/04/20 08:19:10;;;;;;;39.78;25.58;;;;;;;;;;4986879;28;20187;-70
2021/04/20 08:21:39;;;;;;;38.53;25.88;;;;;;;;;;4991346;28;20191;-69
2021/04/20 08:24:07;;;;;;;40.22;25.50;;;;;;;;;;4985403;28;21035;-69
2021/04/20 08:26:38;;;;;;;37.72;24.67;;;;;;;;;;4999921;28;20295;-70
2021/04/20 08:29:11;;;;;;;38.05;24.92;;;;;;;;;;4981949;28;20183;-70
2021/04/20 08:31:49;;;;;;;40.55;26.20;;;;;;;;;;4990363;28;20229;-70
2021/04/20 08:34:27;;;;;;;42.50;26.13;;;;;;;;;;4990700;28;20570;-69
2021/04/20 08:37:02;;;;;;;39.53;27.08;;;;;;;;;;4993572;28;20187;-70
2021/04/20 08:39:36;;;;;;;41.97;26.25;;;;;;;;;;4990129;28;20202;-70
2021/04/20 08:42:10;;;;;;;36.55;25.42;;;;;;;;;;4994733;28;20274;-70
2021/04/20 08:45:02;;;;;;;37.75;24.25;;;;;;;;;;4992437;28;20641;-70
2021/04/20 08:48:04;;;;;;;42.15;26.52;;;;;;;;;;4995935;28;20243;-70
2021/04/20 08:50:34;;;;;;;39.22;25.70;;;;;;;;;;4982607;28;20245;-70
2021/04/20 08:53:31;;;;;;;41.50;26.02;;;;;;;;;;4993930;28;20211;-70
2021/04/20 08:56:19;;;;;;;40.38;27.00;;;;;;;;;;4986770;28;20195;-70
2021/04/20 08:59:07;;;;;;;42.03;26.35;;;;;;;;;;4994300;28;20229;-70
2021/04/20 09:02:03;;;;;;;36.63;25.15;;;;;;;;;;4991343;28;20199;-70
2021/04/20 09:05:06;;;;;;;39.20;25.17;;;;;;;;;;4998823;28;20246;-70
2021/04/20 09:07:57;;;;;;;34.95;23.95;;;;;;;;;;4989068;28;20578;-70
2021/04/20 09:10:47;;;;;;;37.60;26.25;;;;;;;;;;4991253;28;20211;-70
2021/04/20 09:13:18;;;;;;;40.10;26.23;;;;;;;;;;4989444;28;20569;-70
2021/04/20 09:15:49;;;;;;;37.53;26.17;;;;;;;;;;4999228;28;20274;-70
2021/04/20 09:18:20;;;;;;;37.78;25.60;;;;;;;;;;4993383;28;20264;-69
2021/04/20 09:20:59;;;;;;;36.03;24.30;;;;;;;;;;4997221;28;20187;-69
2021/04/20 09:23:46;;;;;;;38.28;26.45;;;;;;;;;;4986850;28;20202;-69
2021/04/20 09:26:33;;;;;;;36.67;26.55;;;;;;;;;;4992241;28;21284;-69
2021/04/20 09:29:56;;;;;;;34.22;23.85;;;;;;;;;;4995063;28;20191;-69
2021/04/20 09:32:28;;;;;;;38.03;25.88;;;;;;;;;;4934340;29;20197;-70
2021/04/20 09:34:55;;;;;;;40.65;25.08;;;;;;;;;;4941453;29;20209;-70
2021/04/20 09:37:21;;;;;;;40.38;26.73;;;;;;;;;;4967029;28;21145;-70
2021/04/20 09:39:51;;;;;;;39.47;27.50;;;;;;;;;;4991529;28;20651;-70
2021/04/20 09:42:18;;;;;;;39.10;25.95;;;;;;;;;;4993425;28;24472;-70
2021/04/20 09:44:51;;;;;;;41.83;25.73;;;;;;;;;;4992508;28;20215;-70
2021/04/20 09:47:50;;;;;;;37.88;24.77;;;;;;;;;;4989805;28;20175;-70
2021/04/20 09:50:45;;;;;;;36.10;24.58;;;;;;;;;;4994441;28;20196;-70
2021/04/20 09:53:31;;;;;;;35.38;23.40;;;;;;;;;;4985952;28;20862;-70
2021/04/20 09:56:17;;;;;;;36.03;24.05;;;;;;;;;;4995933;28;20669;-70
2021/04/20 09:58:44;;;;;;;33.22;23.35;;;;;;;;;;4982715;28;20279;-70
2021/04/20 10:01:33;;;;;;;36.80;24.95;;;;;;;;;;4993081;28;20615;-69
2021/04/20 10:04:13;;;;;;;36.10;24.25;;;;;;;;;;4982059;28;20353;-70
2021/04/20 10:07:09;;;;;;;35.15;25.45;;;;;;;;;;4988002;28;20190;-70
2021/04/20 10:10:02;;;;;;;36.63;24.95;;;;;;;;;;4983631;28;20187;-70
2021/04/20 10:12:42;;;;;;;36.10;25.10;;;;;;;;;;4987655;28;20296;-70
2021/04/20 10:15:14;;;;;;;36.92;26.75;;;;;;;;;;4983787;28;20643;-70
2021/04/20 10:18:04;;;;;;;38.40;25.33;;;;;;;;;;4988428;28;20620;-70
2021/04/20 10:20:45;;;;;;;36.13;25.90;;;;;;;;;;4983969;28;20261;-70
2021/04/20 10:23:34;;;;;;;35.22;24.92;;;;;;;;;;4989109;28;20186;-69
2021/04/20 10:26:10;;;;;;;38.83;27.55;;;;;;;;;;4986978;28;20298;-69
2021/04/20 10:28:48;;;;;;;38.97;28.05;;;;;;;;;;4994825;28;20186;-69
2021/04/20 10:31:38;;;;;;;35.63;26.02;;;;;;;;;;4984937;28;20432;-69
2021/04/20 10:34:07;;;;;;;40.05;26.92;;;;;;;;;;4998368;28;20278;-69
2021/04/20 10:36:34;;;;;;;36.92;26.73;;;;;;;;;;4981229;28;20198;-69
2021/04/20 10:39:07;;;;;;;38.72;27.20;;;;;;;;;;4993986;28;20627;-70
2021/04/20 10:41:33;;;;;;;34.72;26.65;;;;;;;;;;4986535;28;20548;-70
2021/04/20 10:44:00;;;;;;;40.15;26.67;;;;;;;;;;4999699;28;20234;-70
2021/04/20 10:46:29;;;;;;;38.40;26.73;;;;;;;;;;4979603;28;20283;-69
2021/04/20 10:48:57;;;;;;;39.70;28.33;;;;;;;;;;4996237;28;20305;-70
2021/04/20 10:51:29;;;;;;;39.22;27.75;;;;;;;;;;4982422;28;20189;-70
2021/04/20 10:53:56;;;;;;;37.95;28.23;;;;;;;;;;4990798;28;20208;-71
2021/04/20 10:56:23;;;;;;;37.25;27.38;;;;;;;;;;4984747;28;20729;-70
2021/04/20 10:58:50;;;;;;;36.85;27.13;;;;;;;;;;4989981;28;20191;-70
2021/04/20 11:01:19;;;;;;;37.15;27.08;;;;;;;;;;4988656;28;20222;-70
2021/04/20 11:03:51;;;;;;;38.63;28.02;;;;;;;;;;5009508;28;20199;-70
2021/04/20 11:06:54;;;;;;;39.15;28.42;;;;;;;;;;4994948;28;20194;-70
2021/04/20 11:09:30;;;;;;;40.45;28.08;;;;;;;;;;4996306;28;20243;-70
2021/04/20 11:11:56;;;;;;;40.80;28.90;;;;;;;;;;4986726;28;20273;-70
2021/04/20 11:14:41;;;;;;;42.72;29.10;;;;;;;;;;4993976;28;20237;-69
2021/04/20 11:17:13;;;;;;;40.05;28.83;;;;;;;;;;4986644;28;20179;-70
2021/04/20 11:19:43;;;;;;;42.20;29.65;;;;;;;;;;4996772;28;20194;-70
2021/04/20 11:22:13;;;;;;;37.22;28.08;;;;;;;;;;4990069;28;20233;-70
2021/04/20 11:24:42;;;;;;;41.53;28.10;;;;;;;;;;4985224;28;20192;-70
2021/04/20 11:27:10;;;;;;;38.47;28.52;;;;;;;;;;4995417;28;20645;-68
2021/04/20 11:29:59;;;;;;;38.88;28.60;;;;;;;;;;4982696;28;20220;-70
2021/04/20 11:32:26;;;;;;;40.33;28.45;;;;;;;;;;4994788;28;20213;-70
2021/04/20 11:34:55;;;;;;;39.28;28.92;;;;;;;;;;4990737;28;20222;-70
2021/04/20 11:37:23;;;;;;;36.55;27.33;;;;;;;;;;4996735;28;20172;-70
2021/04/20 11:40:02;;;;;;;36.33;26.95;;;;;;;;;;4988094;28;20192;-70
2021/04/20 11:42:48;;;;;;;33.30;24.88;;;;;;;;;;4992914;28;20276;-70
2021/04/20 11:45:23;;;;;;;31.02;23.20;;;;;;;;;;4992376;28;20218;-70
2021/04/20 11:48:01;;;;;;;31.55;24.05;;;;;;;;;;4995218;28;20186;-70
2021/04/20 11:50:31;;;;;;;35.40;25.50;;;;;;;;;;4981490;28;20179;-71
2021/04/20 11:53:03;;;;;;;33.67;24.25;;;;;;;;;;5000987;28;20189;-70
2021/04/20 11:55:31;;;;;;;36.03;25.85;;;;;;;;;;4989946;28;20215;-71
2021/04/20 11:58:02;;;;;;;34.10;26.42;;;;;;;;;;4994864;28;20183;-71
2021/04/20 12:00:29;;;;;;;31.15;23.73;;;;;;;;;;4983678;28;20249;-70
2021/04/20 12:02:55;;;;;;;31.48;23.65;;;;;;;;;;4991460;28;20197;-69
2021/04/20 12:05:21;;;;;;;30.80;23.83;;;;;;;;;;4987761;28;20525;-70
2021/04/20 12:07:50;;;;;;;33.00;23.92;;;;;;;;;;4996622;28;20209;-70
2021/04/20 12:10:18;;;;;;;31.08;24.13;;;;;;;;;;4991333;28;20191;-70
2021/04/20 12:12:49;;;;;;;32.45;24.42;;;;;;;;;;4993124;28;20181;-70
2021/04/20 12:15:17;;;;;;;34.38;25.80;;;;;;;;;;4985174;28;20285;-69
2021/04/20 12:17:44;;;;;;;33.53;24.65;;;;;;;;;;4994938;28;20304;-70
2021/04/20 12:20:24;;;;;;;32.15;23.75;;;;;;;;;;4985281;28;20217;-70
2021/04/20 12:22:58;;;;;;;30.73;21.92;;;;;;;;;;4996132;28;20178;-71
2021/04/20 12:25:24;;;;;;;29.90;22.02;;;;;;;;;;4984202;28;20219;-70
2021/04/20 12:27:59;;;;;;;31.95;23.52;;;;;;;;;;4992995;28;20182;-70
2021/04/20 12:30:26;;;;;;;35.20;23.75;;;;;;;;;;4991226;28;20492;-70
2021/04/20 12:32:52;;;;;;;29.92;23.92;;;;;;;;;;4989942;28;20187;-70
2021/04/20 12:35:30;;;;;;;34.88;25.00;;;;;;;;;;4994691;28;20198;-71
2021/04/20 12:37:58;;;;;;;34.50;24.83;;;;;;;;;;4989257;28;20206;-70
2021/04/20 12:40:24;;;;;;;38.88;27.13;;;;;;;;;;5001164;28;20250;-71
2021/04/20 12:42:56;;;;;;;33.50;24.50;;;;;;;;;;4982645;28;20175;-70
2021/04/20 12:45:26;;;;;;;33.42;24.45;;;;;;;;;;4994827;28;20337;-70
2021/04/20 12:47:55;;;;;;;32.60;24.70;;;;;;;;;;4984865;28;20183;-70
2021/04/20 12:50:26;;;;;;;26.80;21.25;;;;;;;;;;4994195;28;20257;-70
2021/04/20 12:52:52;;;;;;;29.45;21.27;;;;;;;;;;4983271;28;20190;-70
2021/04/20 12:55:24;;;;;;;28.33;20.83;;;;;;;;;;4995050;28;20204;-70
2021/04/20 12:57:51;;;;;;;26.95;19.52;;;;;;;;;;4982778;28;20187;-71
2021/04/20 13:00:25;;;;;;;27.38;20.17;;;;;;;;;;4991505;28;20199;-70
2021/04/20 13:02:52;;;;;;;23.58;17.58;;;;;;;;;;4983774;28;20211;-70
2021/04/20 13:05:25;;;;;;;26.10;19.55;;;;;;;;;;4995101;28;20187;-69
2021/04/20 13:07:51;;;;;;;23.88;18.58;;;;;;;;;;4990425;28;20199;-69
2021/04/20 13:10:19;;;;;;;33.08;23.35;;;;;;;;;;4996708;28;20221;-69
2021/04/20 13:12:52;;;;;;;32.22;23.67;;;;;;;;;;4988754;28;20262;-70
2021/04/20 13:15:21;;;;;;;30.15;23.75;;;;;;;;;;4996167;28;20194;-70
2021/04/20 13:17:48;;;;;;;32.05;23.17;;;;;;;;;;4995616;28;20171;-70
2021/04/20 13:20:21;;;;;;;32.25;23.38;;;;;;;;;;4980194;28;20202;-70
2021/04/20 13:22:46;;;;;;;31.48;22.52;;;;;;;;;;4998444;28;20175;-69
2021/04/20 13:25:12;;;;;;;30.63;22.45;;;;;;;;;;4984023;28;20193;-69
2021/04/20 13:27:43;;;;;;;30.85;22.17;;;;;;;;;;4994554;28;20207;-69
2021/04/20 13:30:09;;;;;;;28.98;21.27;;;;;;;;;;4984008;28;20797;-71
2021/04/20 13:32:36;;;;;;;30.55;22.15;;;;;;;;;;4996978;28;20198;-70
2021/04/20 13:35:02;;;;;;;31.70;22.15;;;;;;;;;;4990646;28;20262;-70
2021/04/20 13:37:31;;;;;;;28.23;22.75;;;;;;;;;;4987576;28;20662;-70
2021/04/20 13:39:59;;;;;;;29.92;21.48;;;;;;;;;;4979912;28;20221;-70
2021/04/20 13:42:28;;;;;;;28.75;22.17;;;;;;;;;;4988340;28;20217;-70
2021/04/20 13:45:03;;;;;;;31.35;22.98;;;;;;;;;;4978961;28;20249;-70
2021/04/20 13:47:30;;;;;;;35.03;22.88;;;;;;;;;;4991896;28;20278;-70
2021/04/20 13:49:57;;;;;;;28.40;22.80;;;;;;;;;;4990104;28;20195;-70
2021/04/20 13:52:35;;;;;;;30.17;22.77;;;;;;;;;;4990949;28;20588;-70
2021/04/20 13:55:24;;;;;;;33.05;21.90;;;;;;;;;;4983311;28;20211;-70
2021/04/20 13:57:56;;;;;;;28.77;21.65;;;;;;;;;;4989784;28;20304;-71
2021/04/20 14:00:29;;;;;;;29.42;22.55;;;;;;;;;;4984953;28;20290;-70
2021/04/20 14:02:57;;;;;;;28.40;21.80;;;;;;;;;;4995772;28;20529;-70
2021/04/20 14:05:36;;;;;;;31.58;23.88;;;;;;;;;;4981492;28;20198;-70
2021/04/20 14:08:06;;;;;;;31.00;22.05;;;;;;;;;;4995860;28;20243;-70
2021/04/20 14:10:32;;;;;;;25.92;21.58;;;;;;;;;;4992601;28;20204;-70
2021/04/20 14:13:05;;;;;;;28.55;21.40;;;;;;;;;;4987364;28;20190;-70
2021/04/20 14:15:32;;;;;;;24.83;20.30;;;;;;;;;;4991886;28;20187;-70
2021/04/20 14:18:04;;;;;;;24.48;19.05;;;;;;;;;;4978762;28;20591;-70
2021/04/20 14:20:34;;;;;;;24.30;19.02;;;;;;;;;;4992354;28;20576;-70
2021/04/20 14:23:03;;;;;;;27.17;20.50;;;;;;;;;;4981458;28;20199;-70
2021/04/20 14:25:39;;;;;;;27.30;20.98;;;;;;;;;;4992587;28;20257;-70
2021/04/20 14:28:05;;;;;;;27.10;21.67;;;;;;;;;;4986919;28;20185;-70
2021/04/20 14:30:33;;;;;;;29.15;21.90;;;;;;;;;;4990523;28;20194;-70
2021/04/20 14:32:59;;;;;;;27.35;19.70;;;;;;;;;;4984858;28;20202;-70
2021/04/20 14:35:30;;;;;;;30.40;21.52;;;;;;;;;;4989522;28;20188;-70
2021/04/20 14:37:58;;;;;;;27.80;20.98;;;;;;;;;;4983136;28;20658;-70
2021/04/20 14:40:25;;;;;;;23.45;18.67;;;;;;;;;;4992943;28;20190;-70
2021/04/20 14:42:53;;;;;;;25.77;18.73;;;;;;;;;;4985643;28;20298;-70